sensor_id;sensor_type;location;lat;lon;timestamp;pressure;altitude;pressure_sealevel;temperature;humidity
12360;BME280;6244;51.460;7.090;2024-01-11T00:03:09;102070.63;;;-3.20;66.85
12360;BME280;6244;51.460;7.090;2024-01-11T00:08:06;102072.22;;;-3.23;67.61
12360;BME280;6244;51.460;7.090;2024-01-11T00:13:04;102076.28;;;-3.32;67.26
12360;BME280;6244;51.460;7.090;2024-01-11T00:18:00;102063.75;;;-3.21;67.81
12360;BME280;6244;51.460;7.090;2024-01-11T00:22:57;102066.25;;;-3.22;67.39
12360;BME280;6244;51.460;7.090;2024-01-11T00:27:54;102065.16;;;-3.32;66.72
12360;BME280;6244;51.460;7.090;2024-01-11T00:32:51;102060.16;;;-3.26;67.17
12360;BME280;6244;51.460;7.090;2024-01-11T00:37:48;102057.34;;;-3.35;67.63
12360;BME280;6244;51.460;7.090;2024-01-11T00:42:45;102054.09;;;-3.30;67.78
12360;BME280;6244;51.460;7.090;2024-01-11T00:47:41;102052.19;;;-3.35;66.93
12360;BME280;6244;51.460;7.090;2024-01-11T00:52:39;102054.66;;;-3.40;68.01
12360;BME280;6244;51.460;7.090;2024-01-11T00:57:36;102056.78;;;-3.55;66.67
12360;BME280;6244;51.460;7.090;2024-01-11T01:02:32;102061.00;;;-3.57;67.44
12360;BME280;6244;51.460;7.090;2024-01-11T01:07:29;102051.56;;;-3.58;66.74
12360;BME280;6244;51.460;7.090;2024-01-11T01:12:27;102054.13;;;-3.58;67.70
12360;BME280;6244;51.460;7.090;2024-01-11T01:17:25;102056.00;;;-3.52;67.19
12360;BME280;6244;51.460;7.090;2024-01-11T01:22:22;102060.13;;;-3.58;67.74
12360;BME280;6244;51.460;7.090;2024-01-11T01:27:19;102064.28;;;-3.61;66.95
12360;BME280;6244;51.460;7.090;2024-01-11T01:32:16;102069.41;;;-3.61;67.90
12360;BME280;6244;51.460;7.090;2024-01-11T01:37:13;102063.38;;;-3.63;67.72
12360;BME280;6244;51.460;7.090;2024-01-11T01:42:10;102066.84;;;-3.61;68.55
12360;BME280;6244;51.460;7.090;2024-01-11T01:47:07;102064.38;;;-3.60;68.02
12360;BME280;6244;51.460;7.090;2024-01-11T01:52:09;102062.06;;;-3.79;68.20
12360;BME280;6244;51.460;7.090;2024-01-11T01:57:07;102059.25;;;-3.87;67.84
12360;BME280;6244;51.460;7.090;2024-01-11T02:02:06;102057.88;;;-3.75;68.45
12360;BME280;6244;51.460;7.090;2024-01-11T02:07:04;102055.97;;;-3.82;68.74
12360;BME280;6244;51.460;7.090;2024-01-11T02:12:02;102065.50;;;-3.78;68.06
12360;BME280;6244;51.460;7.090;2024-01-11T02:17:00;102053.97;;;-3.93;68.68
12360;BME280;6244;51.460;7.090;2024-01-11T02:22:02;102060.38;;;-3.78;68.70
12360;BME280;6244;51.460;7.090;2024-01-11T02:27:04;102067.00;;;-3.85;69.19
12360;BME280;6244;51.460;7.090;2024-01-11T02:32:02;102057.25;;;-3.97;68.62
12360;BME280;6244;51.460;7.090;2024-01-11T02:37:00;102075.34;;;-3.92;69.29
12360;BME280;6244;51.460;7.090;2024-01-11T02:41:57;102059.94;;;-3.92;68.67
12360;BME280;6244;51.460;7.090;2024-01-11T02:46:55;102064.78;;;-4.01;68.96
12360;BME280;6244;51.460;7.090;2024-01-11T02:51:52;102070.56;;;-4.08;69.16
12360;BME280;6244;51.460;7.090;2024-01-11T02:56:49;102056.75;;;-4.39;70.65
12360;BME280;6244;51.460;7.090;2024-01-11T03:01:45;102063.50;;;-4.16;70.21
12360;BME280;6244;51.460;7.090;2024-01-11T03:06:43;102068.38;;;-4.23;70.03
12360;BME280;6244;51.460;7.090;2024-01-11T03:11:39;102067.06;;;-4.10;70.00
12360;BME280;6244;51.460;7.090;2024-01-11T03:16:36;102070.41;;;-4.13;69.84
12360;BME280;6244;51.460;7.090;2024-01-11T03:21:34;102075.69;;;-4.08;69.62
12360;BME280;6244;51.460;7.090;2024-01-11T03:26:32;102055.38;;;-4.29;69.72
12360;BME280;6244;51.460;7.090;2024-01-11T03:31:29;102072.75;;;-4.21;69.67
12360;BME280;6244;51.460;7.090;2024-01-11T03:36:25;102081.22;;;-4.49;70.14
12360;BME280;6244;51.460;7.090;2024-01-11T03:41:22;102093.56;;;-4.62;71.64
12360;BME280;6244;51.460;7.090;2024-01-11T03:46:20;102095.34;;;-4.60;71.97
12360;BME280;6244;51.460;7.090;2024-01-11T03:51:16;102105.59;;;-4.60;72.93
12360;BME280;6244;51.460;7.090;2024-01-11T03:56:13;102102.47;;;-4.77;73.08
12360;BME280;6244;51.460;7.090;2024-01-11T04:01:09;102093.19;;;-4.73;73.62
12360;BME280;6244;51.460;7.090;2024-01-11T04:06:07;102096.88;;;-4.65;73.31
12360;BME280;6244;51.460;7.090;2024-01-11T04:11:04;102107.03;;;-4.68;73.49
12360;BME280;6244;51.460;7.090;2024-01-11T04:16:04;102111.47;;;-4.88;73.59
12360;BME280;6244;51.460;7.090;2024-01-11T04:21:00;102104.97;;;-4.78;74.07
12360;BME280;6244;51.460;7.090;2024-01-11T04:25:58;102102.50;;;-4.75;73.50
12360;BME280;6244;51.460;7.090;2024-01-11T04:30:55;102118.97;;;-4.68;72.76
12360;BME280;6244;51.460;7.090;2024-01-11T04:35:51;102117.53;;;-4.60;72.53
12360;BME280;6244;51.460;7.090;2024-01-11T04:40:48;102120.44;;;-4.50;72.33
12360;BME280;6244;51.460;7.090;2024-01-11T04:45:46;102097.97;;;-4.58;72.17
12360;BME280;6244;51.460;7.090;2024-01-11T04:50:43;102104.88;;;-4.56;71.33
12360;BME280;6244;51.460;7.090;2024-01-11T04:55:40;102109.34;;;-4.50;70.41
12360;BME280;6244;51.460;7.090;2024-01-11T05:00:37;102113.22;;;-4.61;70.95
12360;BME280;6244;51.460;7.090;2024-01-11T05:05:35;102131.38;;;-4.55;70.96
12360;BME280;6244;51.460;7.090;2024-01-11T05:10:31;102137.91;;;-4.63;71.33
12360;BME280;6244;51.460;7.090;2024-01-11T05:15:28;102139.28;;;-4.73;71.36
12360;BME280;6244;51.460;7.090;2024-01-11T05:20:24;102129.31;;;-4.65;70.24
12360;BME280;6244;51.460;7.090;2024-01-11T05:25:22;102152.81;;;-4.77;71.36
12360;BME280;6244;51.460;7.090;2024-01-11T05:30:19;102149.31;;;-5.03;72.02
12360;BME280;6244;51.460;7.090;2024-01-11T05:35:16;102156.84;;;-5.30;73.89
12360;BME280;6244;51.460;7.090;2024-01-11T05:40:12;102165.84;;;-5.40;74.30
12360;BME280;6244;51.460;7.090;2024-01-11T05:45:35;102177.06;;;-5.36;74.03
12360;BME280;6244;51.460;7.090;2024-01-11T05:50:31;102188.63;;;-5.46;75.13
12360;BME280;6244;51.460;7.090;2024-01-11T05:55:28;102173.97;;;-5.50;76.20
12360;BME280;6244;51.460;7.090;2024-01-11T06:00:25;102171.78;;;-5.41;75.84
12360;BME280;6244;51.460;7.090;2024-01-11T06:05:22;102170.88;;;-5.20;74.98
12360;BME280;6244;51.460;7.090;2024-01-11T06:10:19;102170.50;;;-5.07;74.41
12360;BME280;6244;51.460;7.090;2024-01-11T06:15:16;102178.22;;;-5.06;73.52
12360;BME280;6244;51.460;7.090;2024-01-11T06:20:14;102148.38;;;-5.05;73.97
12360;BME280;6244;51.460;7.090;2024-01-11T06:25:11;102146.97;;;-5.43;73.48
12360;BME280;6244;51.460;7.090;2024-01-11T06:30:08;102161.34;;;-5.23;73.84
12360;BME280;6244;51.460;7.090;2024-01-11T06:35:06;102157.47;;;-5.13;73.58
12360;BME280;6244;51.460;7.090;2024-01-11T06:40:05;102158.69;;;-5.04;72.86
12360;BME280;6244;51.460;7.090;2024-01-11T06:45:03;102174.75;;;-5.08;72.67
12360;BME280;6244;51.460;7.090;2024-01-11T06:50:00;102185.19;;;-5.24;73.22
12360;BME280;6244;51.460;7.090;2024-01-11T06:54:58;102171.03;;;-5.16;73.47
12360;BME280;6244;51.460;7.090;2024-01-11T06:59:57;102172.25;;;-5.28;73.43
12360;BME280;6244;51.460;7.090;2024-01-11T07:04:54;102163.28;;;-5.17;73.72
12360;BME280;6244;51.460;7.090;2024-01-11T07:09:50;102196.31;;;-5.01;73.20
12360;BME280;6244;51.460;7.090;2024-01-11T07:14:50;102203.88;;;-5.04;73.31
12360;BME280;6244;51.460;7.090;2024-01-11T07:19:48;102210.97;;;-5.19;73.85
12360;BME280;6244;51.460;7.090;2024-01-11T07:24:44;102223.84;;;-5.18;73.63
12360;BME280;6244;51.460;7.090;2024-01-11T07:29:41;102213.88;;;-5.10;73.20
12360;BME280;6244;51.460;7.090;2024-01-11T07:34:37;102215.84;;;-5.03;72.74
12360;BME280;6244;51.460;7.090;2024-01-11T07:39:35;102200.84;;;-5.16;72.98
12360;BME280;6244;51.460;7.090;2024-01-11T07:44:32;102201.31;;;-5.04;74.41
12360;BME280;6244;51.460;7.090;2024-01-11T07:49:28;102204.09;;;-4.98;73.23
12360;BME280;6244;51.460;7.090;2024-01-11T07:54:26;102205.91;;;-4.95;73.13
12360;BME280;6244;51.460;7.090;2024-01-11T07:59:24;102203.09;;;-5.02;73.14
12360;BME280;6244;51.460;7.090;2024-01-11T08:04:20;102189.34;;;-5.05;72.98
12360;BME280;6244;51.460;7.090;2024-01-11T08:09:17;102187.22;;;-4.93;74.32
12360;BME280;6244;51.460;7.090;2024-01-11T08:14:14;102186.88;;;-5.02;74.67
12360;BME280;6244;51.460;7.090;2024-01-11T08:19:12;102190.00;;;-4.87;74.02
12360;BME280;6244;51.460;7.090;2024-01-11T08:24:09;102179.81;;;-4.85;75.26
12360;BME280;6244;51.460;7.090;2024-01-11T08:29:06;102208.78;;;-4.86;75.26
12360;BME280;6244;51.460;7.090;2024-01-11T08:34:04;102209.50;;;-4.90;76.18
12360;BME280;6244;51.460;7.090;2024-01-11T08:39:03;102218.94;;;-4.89;76.44
12360;BME280;6244;51.460;7.090;2024-01-11T08:44:01;102223.63;;;-4.78;76.38
12360;BME280;6244;51.460;7.090;2024-01-11T08:48:58;102227.88;;;-4.78;76.96
12360;BME280;6244;51.460;7.090;2024-01-11T08:53:55;102236.31;;;-4.81;76.52
12360;BME280;6244;51.460;7.090;2024-01-11T08:58:53;102229.50;;;-4.80;77.17
12360;BME280;6244;51.460;7.090;2024-01-11T09:03:49;102241.50;;;-4.79;77.23
12360;BME280;6244;51.460;7.090;2024-01-11T09:08:46;102238.06;;;-4.80;76.96
12360;BME280;6244;51.460;7.090;2024-01-11T09:13:44;102249.63;;;-4.67;78.23
12360;BME280;6244;51.460;7.090;2024-01-11T09:18:43;102239.94;;;-4.52;77.55
12360;BME280;6244;51.460;7.090;2024-01-11T09:23:39;102261.41;;;-4.48;77.91
12360;BME280;6244;51.460;7.090;2024-01-11T09:28:36;102258.69;;;-4.53;77.58
12360;BME280;6244;51.460;7.090;2024-01-11T09:33:32;102268.50;;;-4.41;78.13
12360;BME280;6244;51.460;7.090;2024-01-11T09:38:30;102258.56;;;-4.08;77.22
12360;BME280;6244;51.460;7.090;2024-01-11T09:43:31;102259.66;;;-3.22;77.65
12360;BME280;6244;51.460;7.090;2024-01-11T09:48:40;102261.91;;;-1.46;70.47
12360;BME280;6244;51.460;7.090;2024-01-11T09:53:43;102257.84;;;0.35;62.41
12360;BME280;6244;51.460;7.090;2024-01-11T09:58:43;102257.91;;;1.61;54.96
12360;BME280;6244;51.460;7.090;2024-01-11T10:03:44;102277.56;;;2.24;52.16
12360;BME280;6244;51.460;7.090;2024-01-11T10:08:43;102265.06;;;2.83;50.71
12360;BME280;6244;51.460;7.090;2024-01-11T10:13:40;102262.78;;;3.41;49.24
12360;BME280;6244;51.460;7.090;2024-01-11T10:18:36;102273.25;;;3.72;46.41
12360;BME280;6244;51.460;7.090;2024-01-11T10:23:33;102276.81;;;4.03;46.72
12360;BME280;6244;51.460;7.090;2024-01-11T10:28:31;102279.44;;;4.10;44.87
12360;BME280;6244;51.460;7.090;2024-01-11T10:33:35;102283.78;;;4.54;43.88
12360;BME280;6244;51.460;7.090;2024-01-11T10:38:39;102266.44;;;4.30;45.30
12360;BME280;6244;51.460;7.090;2024-01-11T10:43:38;102277.66;;;5.06;43.45
12360;BME280;6244;51.460;7.090;2024-01-11T10:48:38;102273.28;;;5.23;42.70
12360;BME280;6244;51.460;7.090;2024-01-11T10:53:41;102269.53;;;5.86;39.36
12360;BME280;6244;51.460;7.090;2024-01-11T10:58:41;102273.97;;;5.66;41.54
12360;BME280;6244;51.460;7.090;2024-01-11T11:03:39;102266.03;;;5.94;39.18
12360;BME280;6244;51.460;7.090;2024-01-11T11:08:38;102253.81;;;6.03;39.45
12360;BME280;6244;51.460;7.090;2024-01-11T11:13:35;102244.06;;;6.34;39.50
12360;BME280;6244;51.460;7.090;2024-01-11T11:18:34;102243.25;;;7.14;38.04
12360;BME280;6244;51.460;7.090;2024-01-11T11:23:36;102236.53;;;7.63;36.55
12360;BME280;6244;51.460;7.090;2024-01-11T11:28:41;102234.56;;;7.82;35.96
12360;BME280;6244;51.460;7.090;2024-01-11T11:33:40;102241.16;;;8.08;35.12
12360;BME280;6244;51.460;7.090;2024-01-11T11:38:37;102252.53;;;8.02;34.54
12360;BME280;6244;51.460;7.090;2024-01-11T11:43:36;102246.50;;;7.99;34.64
12360;BME280;6244;51.460;7.090;2024-01-11T11:48:49;102228.47;;;7.82;34.44
12360;BME280;6244;51.460;7.090;2024-01-11T11:53:51;102220.25;;;8.06;33.75
12360;BME280;6244;51.460;7.090;2024-01-11T11:58:49;102210.50;;;8.67;33.04
12360;BME280;6244;51.460;7.090;2024-01-11T12:03:49;102210.28;;;8.79;32.95
12360;BME280;6244;51.460;7.090;2024-01-11T12:08:47;102216.47;;;8.75;33.60
12360;BME280;6244;51.460;7.090;2024-01-11T12:13:44;102216.66;;;8.12;33.63
12360;BME280;6244;51.460;7.090;2024-01-11T12:18:40;102205.47;;;8.02;34.76
12360;BME280;6244;51.460;7.090;2024-01-11T12:23:39;102206.88;;;8.24;32.44
12360;BME280;6244;51.460;7.090;2024-01-11T12:28:37;102224.75;;;7.97;33.50
12360;BME280;6244;51.460;7.090;2024-01-11T12:33:34;102222.53;;;8.26;33.89
12360;BME280;6244;51.460;7.090;2024-01-11T12:38:33;102227.22;;;8.06;33.19
12360;BME280;6244;51.460;7.090;2024-01-11T12:43:33;102223.09;;;7.89;33.00
12360;BME280;6244;51.460;7.090;2024-01-11T12:48:30;102221.53;;;7.78;33.34
12360;BME280;6244;51.460;7.090;2024-01-11T12:53:27;102230.22;;;6.23;36.20
12360;BME280;6244;51.460;7.090;2024-01-11T12:58:24;102237.81;;;4.90;37.83
12360;BME280;6244;51.460;7.090;2024-01-11T13:03:22;102241.19;;;3.51;42.03
12360;BME280;6244;51.460;7.090;2024-01-11T13:08:18;102234.53;;;2.46;44.36
12360;BME280;6244;51.460;7.090;2024-01-11T13:13:16;102223.31;;;2.42;44.73
12360;BME280;6244;51.460;7.090;2024-01-11T13:18:12;102218.75;;;2.14;45.61
12360;BME280;6244;51.460;7.090;2024-01-11T13:23:15;102227.94;;;1.80;46.47
12360;BME280;6244;51.460;7.090;2024-01-11T13:28:14;102216.53;;;1.62;47.07
12360;BME280;6244;51.460;7.090;2024-01-11T13:33:11;102215.50;;;1.48;47.14
12360;BME280;6244;51.460;7.090;2024-01-11T13:38:08;102214.34;;;1.23;48.02
12360;BME280;6244;51.460;7.090;2024-01-11T13:43:06;102209.09;;;1.15;47.93
12360;BME280;6244;51.460;7.090;2024-01-11T13:48:05;102218.72;;;1.26;48.20
12360;BME280;6244;51.460;7.090;2024-01-11T13:53:02;102216.72;;;1.06;49.04
12360;BME280;6244;51.460;7.090;2024-01-11T13:57:59;102209.72;;;0.99;48.39
12360;BME280;6244;51.460;7.090;2024-01-11T14:03:00;102201.97;;;0.99;49.07
12360;BME280;6244;51.460;7.090;2024-01-11T14:07:59;102201.91;;;0.93;49.38
12360;BME280;6244;51.460;7.090;2024-01-11T14:12:56;102205.31;;;0.89;49.79
12360;BME280;6244;51.460;7.090;2024-01-11T14:17:53;102190.59;;;0.86;49.77
12360;BME280;6244;51.460;7.090;2024-01-11T14:22:51;102189.00;;;0.96;49.97
12360;BME280;6244;51.460;7.090;2024-01-11T14:27:48;102195.75;;;0.85;49.75
12360;BME280;6244;51.460;7.090;2024-01-11T14:32:45;102194.63;;;0.65;50.28
12360;BME280;6244;51.460;7.090;2024-01-11T14:37:45;102198.75;;;0.52;51.15
12360;BME280;6244;51.460;7.090;2024-01-11T14:42:43;102193.38;;;0.38;51.52
12360;BME280;6244;51.460;7.090;2024-01-11T14:47:40;102202.66;;;0.25;51.86
12360;BME280;6244;51.460;7.090;2024-01-11T14:52:39;102206.81;;;0.17;52.60
12360;BME280;6244;51.460;7.090;2024-01-11T14:57:39;102208.38;;;0.09;53.67
12360;BME280;6244;51.460;7.090;2024-01-11T15:02:40;102202.97;;;-0.06;54.72
12360;BME280;6244;51.460;7.090;2024-01-11T15:07:39;102213.34;;;-0.02;54.91
12360;BME280;6244;51.460;7.090;2024-01-11T15:12:35;102217.06;;;0.13;55.14
12360;BME280;6244;51.460;7.090;2024-01-11T15:17:32;102216.88;;;0.02;57.45
12360;BME280;6244;51.460;7.090;2024-01-11T15:22:30;102215.81;;;-0.09;59.73
12360;BME280;6244;51.460;7.090;2024-01-11T15:37:33;102268.28;;;-0.52;69.12
12360;BME280;6244;51.460;7.090;2024-01-11T15:42:34;102263.56;;;-0.73;74.83
12360;BME280;6244;51.460;7.090;2024-01-11T15:47:31;102275.19;;;-0.92;80.36
12360;BME280;6244;51.460;7.090;2024-01-11T15:52:28;102267.50;;;-0.89;83.15
12360;BME280;6244;51.460;7.090;2024-01-11T15:57:26;102270.25;;;-0.81;84.20
12360;BME280;6244;51.460;7.090;2024-01-11T16:02:23;102275.75;;;-0.65;85.39
12360;BME280;6244;51.460;7.090;2024-01-11T16:07:19;102269.03;;;-0.58;85.22
12360;BME280;6244;51.460;7.090;2024-01-11T16:12:16;102277.84;;;-0.48;85.13
12360;BME280;6244;51.460;7.090;2024-01-11T16:17:16;102277.06;;;-0.44;85.44
12360;BME280;6244;51.460;7.090;2024-01-11T16:22:16;102260.75;;;-0.43;85.68
12360;BME280;6244;51.460;7.090;2024-01-11T16:27:15;102273.63;;;-0.43;86.08
12360;BME280;6244;51.460;7.090;2024-01-11T16:32:13;102255.66;;;-0.39;86.92
12360;BME280;6244;51.460;7.090;2024-01-11T16:37:17;102248.75;;;-0.40;87.71
12360;BME280;6244;51.460;7.090;2024-01-11T16:42:15;102242.72;;;-0.42;88.19
12360;BME280;6244;51.460;7.090;2024-01-11T16:47:24;102253.09;;;-0.39;88.98
12360;BME280;6244;51.460;7.090;2024-01-11T16:52:22;102227.41;;;-0.34;88.49
12360;BME280;6244;51.460;7.090;2024-01-11T17:02:44;102231.66;;;-0.36;88.65
12360;BME280;6244;51.460;7.090;2024-01-11T17:07:42;102226.28;;;-0.48;89.60
12360;BME280;6244;51.460;7.090;2024-01-11T17:12:39;102235.13;;;-0.36;89.81
12360;BME280;6244;51.460;7.090;2024-01-11T17:17:36;102237.59;;;-0.40;89.66
12360;BME280;6244;51.460;7.090;2024-01-11T17:22:33;102242.44;;;-0.55;90.27
12360;BME280;6244;51.460;7.090;2024-01-11T17:27:31;102229.59;;;-0.54;90.56
12360;BME280;6244;51.460;7.090;2024-01-11T17:32:28;102222.63;;;-0.58;90.93
12360;BME280;6244;51.460;7.090;2024-01-11T17:37:25;102239.06;;;-0.53;91.98
12360;BME280;6244;51.460;7.090;2024-01-11T17:42:21;102225.22;;;-0.58;92.73
12360;BME280;6244;51.460;7.090;2024-01-11T17:47:19;102226.81;;;-0.63;93.56
12360;BME280;6244;51.460;7.090;2024-01-11T17:52:15;102224.97;;;-0.70;93.59
12360;BME280;6244;51.460;7.090;2024-01-11T17:57:12;102225.00;;;-0.69;94.14
12360;BME280;6244;51.460;7.090;2024-01-11T18:02:09;102222.06;;;-0.43;95.44
12360;BME280;6244;51.460;7.090;2024-01-11T18:07:06;102213.53;;;-0.39;94.27
12360;BME280;6244;51.460;7.090;2024-01-11T18:12:04;102226.81;;;-0.19;95.01
12360;BME280;6244;51.460;7.090;2024-01-11T18:17:00;102228.34;;;-0.29;93.24
12360;BME280;6244;51.460;7.090;2024-01-11T18:21:57;102229.81;;;-0.42;94.22
12360;BME280;6244;51.460;7.090;2024-01-11T18:26:55;102231.47;;;0.00;96.30
12360;BME280;6244;51.460;7.090;2024-01-11T18:31:52;102224.81;;;0.14;94.28
12360;BME280;6244;51.460;7.090;2024-01-11T18:36:48;102224.22;;;0.29;92.74
12360;BME280;6244;51.460;7.090;2024-01-11T18:41:45;102232.44;;;0.07;92.55
12360;BME280;6244;51.460;7.090;2024-01-11T18:46:43;102246.84;;;0.47;93.29
12360;BME280;6244;51.460;7.090;2024-01-11T18:51:40;102226.38;;;0.59;90.11
12360;BME280;6244;51.460;7.090;2024-01-11T18:56:36;102237.03;;;0.24;91.86
12360;BME280;6244;51.460;7.090;2024-01-11T19:01:33;102237.66;;;0.63;91.90
12360;BME280;6244;51.460;7.090;2024-01-11T19:06:31;102229.66;;;0.49;91.12
12360;BME280;6244;51.460;7.090;2024-01-11T19:11:29;102231.72;;;0.71;91.14
12360;BME280;6244;51.460;7.090;2024-01-11T19:16:26;102235.13;;;0.67;90.63
12360;BME280;6244;51.460;7.090;2024-01-11T19:21:23;102230.44;;;0.42;91.00
12360;BME280;6244;51.460;7.090;2024-01-11T19:26:21;102228.25;;;0.13;91.74
12360;BME280;6244;51.460;7.090;2024-01-11T19:31:18;102239.56;;;0.23;94.60
12360;BME280;6244;51.460;7.090;2024-01-11T19:36:14;102237.94;;;0.26;94.07
12360;BME280;6244;51.460;7.090;2024-01-11T19:41:11;102255.47;;;0.47;94.90
12360;BME280;6244;51.460;7.090;2024-01-11T19:46:15;102265.06;;;0.54;95.14
12360;BME280;6244;51.460;7.090;2024-01-11T19:51:12;102259.94;;;0.57;94.58
12360;BME280;6244;51.460;7.090;2024-01-11T19:56:14;102267.63;;;0.53;94.74
12360;BME280;6244;51.460;7.090;2024-01-11T20:01:13;102250.78;;;0.23;95.09
12360;BME280;6244;51.460;7.090;2024-01-11T20:06:10;102254.59;;;0.47;95.96
12360;BME280;6244;51.460;7.090;2024-01-11T20:11:06;102256.59;;;0.63;95.64
12360;BME280;6244;51.460;7.090;2024-01-11T20:16:06;102255.47;;;0.47;95.16
12360;BME280;6244;51.460;7.090;2024-01-11T20:21:04;102268.50;;;0.53;95.70
12360;BME280;6244;51.460;7.090;2024-01-11T20:26:05;102268.53;;;0.56;96.24
12360;BME280;6244;51.460;7.090;2024-01-11T20:31:02;102271.13;;;0.56;96.12
12360;BME280;6244;51.460;7.090;2024-01-11T20:35:59;102273.50;;;0.44;95.90
12360;BME280;6244;51.460;7.090;2024-01-11T20:40:59;102271.28;;;0.14;96.56
12360;BME280;6244;51.460;7.090;2024-01-11T20:45:56;102282.28;;;0.04;98.39
12360;BME280;6244;51.460;7.090;2024-01-11T20:50:53;102287.03;;;0.29;99.49
12360;BME280;6244;51.460;7.090;2024-01-11T20:55:49;102283.69;;;0.37;99.48
12360;BME280;6244;51.460;7.090;2024-01-11T21:00:47;102298.38;;;0.38;99.79
12360;BME280;6244;51.460;7.090;2024-01-11T21:05:44;102298.31;;;0.36;100.00
12360;BME280;6244;51.460;7.090;2024-01-11T21:10:43;102304.25;;;0.29;99.58
12360;BME280;6244;51.460;7.090;2024-01-11T21:15:40;102304.25;;;0.31;100.00
12360;BME280;6244;51.460;7.090;2024-01-11T21:20:38;102298.25;;;0.32;100.00
12360;BME280;6244;51.460;7.090;2024-01-11T21:25:35;102302.50;;;0.28;100.00
12360;BME280;6244;51.460;7.090;2024-01-11T21:30:31;102292.19;;;0.28;100.00
12360;BME280;6244;51.460;7.090;2024-01-11T21:35:28;102290.41;;;0.25;100.00
12360;BME280;6244;51.460;7.090;2024-01-11T21:40:25;102286.75;;;0.13;99.79
12360;BME280;6244;51.460;7.090;2024-01-11T21:45:23;102286.78;;;-0.30;100.00
12360;BME280;6244;51.460;7.090;2024-01-11T21:50:19;102287.41;;;-0.41;100.00
12360;BME280;6244;51.460;7.090;2024-01-11T21:55:16;102293.03;;;-0.18;100.00
12360;BME280;6244;51.460;7.090;2024-01-11T22:00:15;102295.22;;;0.06;100.00
12360;BME280;6244;51.460;7.090;2024-01-11T22:05:11;102299.72;;;0.17;100.00
12360;BME280;6244;51.460;7.090;2024-01-11T22:10:09;102288.38;;;0.09;100.00
12360;BME280;6244;51.460;7.090;2024-01-11T22:15:06;102298.91;;;0.20;100.00
12360;BME280;6244;51.460;7.090;2024-01-11T22:20:06;102306.59;;;0.17;100.00
12360;BME280;6244;51.460;7.090;2024-01-11T22:25:04;102295.53;;;0.24;100.00
12360;BME280;6244;51.460;7.090;2024-01-11T22:30:03;102291.84;;;0.10;100.00
12360;BME280;6244;51.460;7.090;2024-01-11T22:40:10;102281.50;;;0.10;100.00
12360;BME280;6244;51.460;7.090;2024-01-11T22:45:09;102285.78;;;0.08;100.00
12360;BME280;6244;51.460;7.090;2024-01-11T22:50:07;102272.84;;;0.06;100.00
12360;BME280;6244;51.460;7.090;2024-01-11T22:55:04;102276.22;;;0.02;100.00
12360;BME280;6244;51.460;7.090;2024-01-11T23:00:05;102272.78;;;0.02;100.00
12360;BME280;6244;51.460;7.090;2024-01-11T23:05:16;102264.06;;;-0.04;100.00
12360;BME280;6244;51.460;7.090;2024-01-11T23:10:13;102268.53;;;0.05;100.00
12360;BME280;6244;51.460;7.090;2024-01-11T23:15:12;102279.91;;;0.15;100.00
12360;BME280;6244;51.460;7.090;2024-01-11T23:20:10;102281.66;;;0.17;100.00
12360;BME280;6244;51.460;7.090;2024-01-11T23:25:07;102284.94;;;0.09;100.00
12360;BME280;6244;51.460;7.090;2024-01-11T23:30:05;102274.44;;;-0.01;100.00
12360;BME280;6244;51.460;7.090;2024-01-11T23:35:04;102277.00;;;-0.01;100.00
12360;BME280;6244;51.460;7.090;2024-01-11T23:40:00;102276.78;;;-0.13;100.00
12360;BME280;6244;51.460;7.090;2024-01-11T23:44:59;102274.09;;;-0.19;100.00
12360;BME280;6244;51.460;7.090;2024-01-11T23:49:57;102266.13;;;-0.31;100.00
12360;BME280;6244;51.460;7.090;2024-01-11T23:54:55;102259.00;;;-0.44;100.00
12360;BME280;6244;51.460;7.090;2024-01-11T23:59:51;102267.25;;;-0.17;100.00
